Columbus Metropolitan Airport
KCSG : rendu visible

Aérodrome :











RETROUVEZ-NOUS SUR...

 
LOGIN :

S'inscrire | Disclaimer

   EN    FR    IT 

 









Légende :    VFR   VFR Marginal   IFR   IFR Intensif   IFR Très Intensif
Visi : 
Plafond : 
>= 8 km
>= 3000ft
5 à 8 km
1000 à 3000 ft
1500m à 5 km
500 à 1000 ft
800 à 1500m
200 à 500 ft
< 800m
< 200 ft
Symboles :   Orages  Brouillard  Fortes neiges  Fortes précipitations  Vent > 20 kt






- Altitude de l'aérodrome : 397 ft
- Code IATA : CSG


KCSG - Columbus Metropolitan

DERNIER METAR :
  • 040351Z AUTO 12005KT 10SM CLR 10/06 A3021 RMK AO2 SLP229 T01000061

METARs EXPIRÉS :
  • 040251Z AUTO 11005KT 10SM FEW120 10/06 A3021 RMK AO2 SLP231 T01000061 58005
  • 040151Z 09004KT 10SM BKN120 11/07 A3024 RMK AO2 SLP240 T01060067

TAF KCSG
Valide du 04 à 00h jusqu'au 05 à 00h UTC


032330Z 0400/0424 15004KT P6SM SCT250
FM040500 11004KT P6SM BKN150
FM041300 12003KT P6SM BKN018
PROB30 0413/0417 4SM SHRA BR OVC010
FM041700 17008KT 6SM SHRA OVC009
FM042000 21007KT 3SM SHRA OVC004
FIR KZTL / Amérique du Nord



MET'MAP, la Météo Aéronautique d'un coup d'oeil ! - Copyright ORBIFLY Décembre 2007 - Disclaimer

ORBIFLY MET'MAP TEAM :

Programmation & Développement : Alexandra Zaïnal
Sur une idée originale de : Baudouin d'Aumeries
Assistance à la programmation : Marc-Olivier Méhu
Soutien technique & logistique : Manuel Goepfert

Contact : metmap@orbifly.com




SOURCES & CREDITS :

   NOAA       Earth
Advisory